Fai una donazione per la manutenzione ed il rinnovamento della strumentazione meteorologica e per il sito che la ospita.


Webcam more information Webcam



altri nostri siti meteo:

Previsioni audio clicca per ascoltarePrevisioni audio

RISCHIO INCENDIRischio incendi

PomeziameteoSito sul meteo

MeteopomeziaSito sul meteo

Pomeziameteo DashboardSito sul meteo

Caput FrigorisSito sul meteo

BarcellonameteoSito sul meteo

MeteoipassiSito sul meteo

TortoretometeolidoSito sul meteo

CastelnuovovomanometeoSito sul meteo

MeteogonzagaSito sul meteo

MeteonetworkInvio dai a Meteonetwork

Weather UndergroundInvio dai a Weather Underground

Scarica App android ViterbometeoInvio dai a Weather Underground



Problemi di comunicazione, Vai direttamente al sito di Meteoalarm : www.meteoalarm.eu e controlla gli allarmi .

Report METAR

   
LIRV - Viterbo (it-Mil), Italy
Distanza dalla stazione: W 4 km
Dati ricevuti: 21-04-2024 19:55
DATI Obsoleti
Poche nuvole  
Poche nuvole  
   Vento: West 13 km/h
Vento: West 13 km/h
Temperatura: 13°C
P.to Rugiada: 0°C
Umidita: 41%
Barometro: 1011 hPa
Nuvole: Poche nuvole
Visibilita: oltre 10 km
dettagli cloud: Poche nuvole 914.4 m
LIRV 211755Z 26007KT 9999 FEW030 13/M00 Q1011
LIQN - Rieti, Italy
Distanza dalla stazione: E 59 km
Dati ricevuti: 21-04-2024 19:50
DATI Obsoleti
Sereno  
Sereno  
   Vento: West 5.6 km/h
Vento: West 5.6 km/h
Temperatura: 13°C
P.to Rugiada: -1°C
Umidita: 38%
Barometro: 1011 hPa
Visibilita: oltre 10 km
dettagli cloud: Sereno
LIQN 211750Z 28003KT 260V320 CAVOK 13/M01 Q1011
LIRU - Rome/Urbe (it-Af, Italy
Distanza dalla stazione: S 61 km
Dati ricevuti: 21-04-2024 19:50
DATI Obsoleti
Sereno  
Sereno  
   Vento: W 13 km/h
Vento: W 13 km/h
Temperatura: 15°C
P.to Rugiada: 5°C
Umidita: 51%
Barometro: 1010 hPa
Visibilita: oltre 10 km
dettagli cloud: Sereno
LIRU 211750Z 29007KT CAVOK 15/05 Q1010
LIRG - Guidonia (it-Afb, Italy
Distanza dalla stazione: SE 68 km
Dati ricevuti: 19-04-2024 19:55
DATI Obsoleti
Sereno  
Sereno  
   Vento: NNW 13 km/h
Vento: NNW 13 km/h
Temperatura: 15°C
P.to Rugiada: -1°C
Umidita: 34%
Barometro: 1012 hPa
Visibilita: oltre 10 km
dettagli cloud: Sereno
LIRG 191755Z 33007KT CAVOK 15/M01 Q1012
LIRK - Terminillo Mount, Italy
Distanza dalla stazione: E 70 km
Dati ricevuti: 21-04-2024 23:55
  
  
   Vento: Sud 9.3 km/h
Vento: Sud 9.3 km/h
Temperatura: 0°C
Temperatura Vento: -3°C
P.to Rugiada: -3°C
Umidita: 80%
Barometro: 1007 hPa
LIRK 212155Z AUTO 18005KT //// M00/M03 Q1007
 

Script sviluppato da  Saratoga-weather.org Adattato per il modello da  Weerstation Leuven

Strumentazione usata:

Stazione meteo
Davis VP2

Programma gestore dati meteo
WVIEW

Server per i dati meteo
WDS-5

Davis VP2

WVIEW

WDS-5